sensor_id;sensor_type;location;lat;lon;timestamp;noise_LAeq;noise_LA_min;noise_LA_max;noise_LA01;noise_LA95
66450;Laerm;56829;52.274;4.770;2023-07-24T00:00:06;33.77;31.62;37.65;;
66450;Laerm;56829;52.274;4.770;2023-07-24T00:00:16;33.58;31.38;40.21;;
66450;Laerm;56829;52.274;4.770;2023-07-24T00:00:27;33.45;31.66;36.32;;
66450;Laerm;56829;52.274;4.770;2023-07-24T00:00:37;34.03;32.08;40.16;;
66450;Laerm;56829;52.274;4.770;2023-07-24T00:00:49;34.60;31.92;39.76;;
66450;Laerm;56829;52.274;4.770;2023-07-24T00:00:59;35.94;34.23;39.26;;
66450;Laerm;56829;52.274;4.770;2023-07-24T00:01:10;43.34;35.38;51.57;;
66450;Laerm;56829;52.274;4.770;2023-07-24T00:01:20;46.36;36.94;54.28;;
66450;Laerm;56829;52.274;4.770;2023-07-24T00:01:30;35.96;33.07;40.34;;
66450;Laerm;56829;52.274;4.770;2023-07-24T00:01:40;34.11;32.09;36.39;;
66450;Laerm;56829;52.274;4.770;2023-07-24T00:01:51;35.21;32.40;43.85;;
66450;Laerm;56829;52.274;4.770;2023-07-24T00:02:02;36.49;34.02;46.42;;
66450;Laerm;56829;52.274;4.770;2023-07-24T00:02:13;43.62;35.22;49.16;;
66450;Laerm;56829;52.274;4.770;2023-07-24T00:02:23;36.23;32.62;43.78;;
66450;Laerm;56829;52.274;4.770;2023-07-24T00:02:34;35.08;32.65;37.66;;
66450;Laerm;56829;52.274;4.770;2023-07-24T00:02:44;36.01;34.49;37.46;;
66450;Laerm;56829;52.274;4.770;2023-07-24T00:02:54;36.84;35.02;40.02;;
66450;Laerm;56829;52.274;4.770;2023-07-24T00:03:06;35.72;33.54;39.70;;
66450;Laerm;56829;52.274;4.770;2023-07-24T00:03:16;34.61;33.04;36.86;;
66450;Laerm;56829;52.274;4.770;2023-07-24T00:03:26;36.12;33.75;38.80;;
66450;Laerm;56829;52.274;4.770;2023-07-24T00:03:36;37.41;35.12;40.19;;
66450;Laerm;56829;52.274;4.770;2023-07-24T00:03:46;38.01;35.82;41.37;;
66450;Laerm;56829;52.274;4.770;2023-07-24T00:03:56;46.41;37.22;54.98;;
66450;Laerm;56829;52.274;4.770;2023-07-24T00:04:08;47.76;40.18;56.13;;
66450;Laerm;56829;52.274;4.770;2023-07-24T00:04:18;37.37;34.09;44.72;;
66450;Laerm;56829;52.274;4.770;2023-07-24T00:04:30;35.38;33.59;40.42;;
66450;Laerm;56829;52.274;4.770;2023-07-24T00:04:41;37.87;33.92;43.50;;
66450;Laerm;56829;52.274;4.770;2023-07-24T00:04:51;35.60;32.32;39.65;;
66450;Laerm;56829;52.274;4.770;2023-07-24T00:05:01;33.65;31.57;37.09;;
66450;Laerm;56829;52.274;4.770;2023-07-24T00:05:11;34.23;32.53;37.32;;
66450;Laerm;56829;52.274;4.770;2023-07-24T00:05:22;33.72;32.22;35.09;;
66450;Laerm;56829;52.274;4.770;2023-07-24T00:05:32;34.51;32.56;38.74;;
66450;Laerm;56829;52.274;4.770;2023-07-24T00:05:42;35.37;33.44;39.72;;
66450;Laerm;56829;52.274;4.770;2023-07-24T00:05:52;35.42;32.85;39.14;;
66450;Laerm;56829;52.274;4.770;2023-07-24T00:06:02;43.50;36.86;54.89;;
66450;Laerm;56829;52.274;4.770;2023-07-24T00:06:12;37.01;33.13;42.31;;
66450;Laerm;56829;52.274;4.770;2023-07-24T00:06:23;36.25;33.54;42.31;;
66450;Laerm;56829;52.274;4.770;2023-07-24T00:06:33;35.89;33.54;40.21;;
66450;Laerm;56829;52.274;4.770;2023-07-24T00:06:43;34.77;32.77;37.25;;
66450;Laerm;56829;52.274;4.770;2023-07-24T00:06:53;33.63;32.00;36.33;;
66450;Laerm;56829;52.274;4.770;2023-07-24T00:07:04;34.10;31.84;36.75;;
66450;Laerm;56829;52.274;4.770;2023-07-24T00:07:14;33.77;31.96;36.44;;
66450;Laerm;56829;52.274;4.770;2023-07-24T00:07:25;33.52;31.24;35.94;;
66450;Laerm;56829;52.274;4.770;2023-07-24T00:07:35;33.46;31.36;36.78;;
66450;Laerm;56829;52.274;4.770;2023-07-24T00:07:45;33.26;31.37;35.33;;
66450;Laerm;56829;52.274;4.770;2023-07-24T00:07:55;33.22;31.11;35.94;;
66450;Laerm;56829;52.274;4.770;2023-07-24T00:08:06;34.06;32.00;37.94;;
66450;Laerm;56829;52.274;4.770;2023-07-24T00:08:16;33.01;31.18;34.59;;
66450;Laerm;56829;52.274;4.770;2023-07-24T00:08:27;33.37;31.11;39.73;;
66450;Laerm;56829;52.274;4.770;2023-07-24T00:08:37;33.57;31.69;36.24;;
66450;Laerm;56829;52.274;4.770;2023-07-24T00:08:47;33.30;31.50;36.64;;
66450;Laerm;56829;52.274;4.770;2023-07-24T00:08:58;33.44;31.37;37.26;;
66450;Laerm;56829;52.274;4.770;2023-07-24T00:09:08;34.40;32.36;39.96;;
66450;Laerm;56829;52.274;4.770;2023-07-24T00:09:18;34.51;32.16;37.36;;
66450;Laerm;56829;52.274;4.770;2023-07-24T00:09:28;34.30;32.40;40.98;;
66450;Laerm;56829;52.274;4.770;2023-07-24T00:09:39;33.74;32.08;36.41;;
66450;Laerm;56829;52.274;4.770;2023-07-24T00:09:49;34.26;32.12;36.25;;
66450;Laerm;56829;52.274;4.770;2023-07-24T00:09:59;34.39;32.25;39.22;;
66450;Laerm;56829;52.274;4.770;2023-07-24T00:10:09;34.21;32.39;39.77;;
66450;Laerm;56829;52.274;4.770;2023-07-24T00:10:19;33.93;31.74;35.52;;
66450;Laerm;56829;52.274;4.770;2023-07-24T00:10:30;34.07;32.05;35.69;;
66450;Laerm;56829;52.274;4.770;2023-07-24T00:10:40;34.79;32.94;37.83;;
66450;Laerm;56829;52.274;4.770;2023-07-24T00:10:50;33.68;31.82;35.65;;
66450;Laerm;56829;52.274;4.770;2023-07-24T00:11:00;34.51;32.41;37.21;;
66450;Laerm;56829;52.274;4.770;2023-07-24T00:11:12;35.29;32.99;38.07;;
66450;Laerm;56829;52.274;4.770;2023-07-24T00:11:23;34.69;32.93;36.91;;
66450;Laerm;56829;52.274;4.770;2023-07-24T00:11:33;34.70;32.14;37.05;;
66450;Laerm;56829;52.274;4.770;2023-07-24T00:11:43;34.17;32.51;36.97;;
66450;Laerm;56829;52.274;4.770;2023-07-24T00:11:53;34.57;32.93;36.67;;
66450;Laerm;56829;52.274;4.770;2023-07-24T00:12:03;34.30;32.34;37.11;;
66450;Laerm;56829;52.274;4.770;2023-07-24T00:12:14;34.25;32.10;37.12;;
66450;Laerm;56829;52.274;4.770;2023-07-24T00:12:24;33.32;31.69;35.27;;
66450;Laerm;56829;52.274;4.770;2023-07-24T00:12:34;33.68;32.03;36.65;;
66450;Laerm;56829;52.274;4.770;2023-07-24T00:12:44;33.30;31.20;36.42;;
66450;Laerm;56829;52.274;4.770;2023-07-24T00:12:55;35.03;31.83;40.07;;
66450;Laerm;56829;52.274;4.770;2023-07-24T00:13:05;45.11;36.23;54.24;;
66450;Laerm;56829;52.274;4.770;2023-07-24T00:13:15;49.29;39.88;55.81;;
66450;Laerm;56829;52.274;4.770;2023-07-24T00:13:25;60.65;49.25;70.95;;
66450;Laerm;56829;52.274;4.770;2023-07-24T00:13:35;61.17;54.16;68.65;;
66450;Laerm;56829;52.274;4.770;2023-07-24T00:13:46;56.55;43.81;65.23;;
66450;Laerm;56829;52.274;4.770;2023-07-24T00:13:56;50.23;41.63;55.84;;
66450;Laerm;56829;52.274;4.770;2023-07-24T00:14:06;42.96;35.12;48.45;;
66450;Laerm;56829;52.274;4.770;2023-07-24T00:14:16;35.92;32.81;41.57;;
66450;Laerm;56829;52.274;4.770;2023-07-24T00:14:27;35.79;33.34;38.66;;
66450;Laerm;56829;52.274;4.770;2023-07-24T00:14:37;35.06;32.29;38.37;;
66450;Laerm;56829;52.274;4.770;2023-07-24T00:14:47;34.14;32.43;39.20;;
66450;Laerm;56829;52.274;4.770;2023-07-24T00:14:57;38.75;33.00;43.31;;
66450;Laerm;56829;52.274;4.770;2023-07-24T00:15:07;38.40;35.14;42.62;;
66450;Laerm;56829;52.274;4.770;2023-07-24T00:15:18;38.13;35.43;41.60;;
66450;Laerm;56829;52.274;4.770;2023-07-24T00:15:28;44.38;36.22;52.46;;
66450;Laerm;56829;52.274;4.770;2023-07-24T00:15:38;51.22;35.54;58.70;;
66450;Laerm;56829;52.274;4.770;2023-07-24T00:15:48;34.82;32.40;37.97;;
66450;Laerm;56829;52.274;4.770;2023-07-24T00:15:59;33.97;31.92;35.97;;
66450;Laerm;56829;52.274;4.770;2023-07-24T00:16:09;34.61;31.97;38.97;;
66450;Laerm;56829;52.274;4.770;2023-07-24T00:16:19;35.60;33.08;45.73;;
66450;Laerm;56829;52.274;4.770;2023-07-24T00:16:29;33.62;31.56;35.47;;
66450;Laerm;56829;52.274;4.770;2023-07-24T00:16:39;33.82;31.09;43.92;;
66450;Laerm;56829;52.274;4.770;2023-07-24T00:16:50;34.19;31.80;37.44;;
66450;Laerm;56829;52.274;4.770;2023-07-24T00:17:00;34.87;32.05;41.21;;
66450;Laerm;56829;52.274;4.770;2023-07-24T00:17:10;33.99;31.52;37.18;;
66450;Laerm;56829;52.274;4.770;2023-07-24T00:17:20;34.23;31.94;36.86;;
66450;Laerm;56829;52.274;4.770;2023-07-24T00:17:31;33.48;31.39;35.34;;
66450;Laerm;56829;52.274;4.770;2023-07-24T00:17:41;34.16;32.34;37.23;;
66450;Laerm;56829;52.274;4.770;2023-07-24T00:17:51;33.37;31.42;35.48;;
66450;Laerm;56829;52.274;4.770;2023-07-24T00:18:01;33.39;31.52;35.51;;
66450;Laerm;56829;52.274;4.770;2023-07-24T00:18:11;33.60;31.96;35.47;;
66450;Laerm;56829;52.274;4.770;2023-07-24T00:18:22;34.09;32.05;40.58;;
66450;Laerm;56829;52.274;4.770;2023-07-24T00:18:32;33.53;31.33;36.32;;
66450;Laerm;56829;52.274;4.770;2023-07-24T00:18:42;33.25;31.55;35.83;;
66450;Laerm;56829;52.274;4.770;2023-07-24T00:18:52;33.56;31.38;35.49;;
66450;Laerm;56829;52.274;4.770;2023-07-24T00:19:02;33.36;31.70;35.40;;
66450;Laerm;56829;52.274;4.770;2023-07-24T00:19:13;33.32;31.38;35.15;;
66450;Laerm;56829;52.274;4.770;2023-07-24T00:19:23;33.95;31.66;36.81;;
66450;Laerm;56829;52.274;4.770;2023-07-24T00:19:33;33.71;32.07;35.65;;
66450;Laerm;56829;52.274;4.770;2023-07-24T00:19:43;34.73;32.33;38.10;;
66450;Laerm;56829;52.274;4.770;2023-07-24T00:19:53;33.93;31.96;38.80;;
66450;Laerm;56829;52.274;4.770;2023-07-24T00:20:04;33.83;32.05;36.65;;
66450;Laerm;56829;52.274;4.770;2023-07-24T00:20:14;33.69;31.56;35.54;;
66450;Laerm;56829;52.274;4.770;2023-07-24T00:20:25;33.27;31.69;35.11;;
66450;Laerm;56829;52.274;4.770;2023-07-24T00:20:36;33.82;31.66;37.72;;
66450;Laerm;56829;52.274;4.770;2023-07-24T00:20:46;34.51;32.22;37.66;;
66450;Laerm;56829;52.274;4.770;2023-07-24T00:20:56;34.16;32.03;37.79;;
66450;Laerm;56829;52.274;4.770;2023-07-24T00:21:06;33.03;31.24;35.26;;
66450;Laerm;56829;52.274;4.770;2023-07-24T00:21:16;33.06;30.91;36.52;;
66450;Laerm;56829;52.274;4.770;2023-07-24T00:21:27;33.32;31.65;36.31;;
66450;Laerm;56829;52.274;4.770;2023-07-24T00:21:37;33.23;31.45;34.90;;
66450;Laerm;56829;52.274;4.770;2023-07-24T00:21:47;33.09;31.16;37.16;;
66450;Laerm;56829;52.274;4.770;2023-07-24T00:21:57;33.61;31.62;36.06;;
66450;Laerm;56829;52.274;4.770;2023-07-24T00:22:07;33.86;31.58;37.12;;
66450;Laerm;56829;52.274;4.770;2023-07-24T00:22:17;34.11;31.60;36.77;;
66450;Laerm;56829;52.274;4.770;2023-07-24T00:22:28;33.61;31.58;35.45;;
66450;Laerm;56829;52.274;4.770;2023-07-24T00:22:38;32.73;30.88;34.16;;
66450;Laerm;56829;52.274;4.770;2023-07-24T00:22:48;32.75;31.02;36.53;;
66450;Laerm;56829;52.274;4.770;2023-07-24T00:22:58;33.18;31.16;35.40;;
66450;Laerm;56829;52.274;4.770;2023-07-24T00:23:08;33.33;30.89;40.27;;
66450;Laerm;56829;52.274;4.770;2023-07-24T00:23:19;33.63;31.45;37.25;;
66450;Laerm;56829;52.274;4.770;2023-07-24T00:23:29;33.34;31.16;36.09;;
66450;Laerm;56829;52.274;4.770;2023-07-24T00:23:39;33.36;31.00;36.58;;
66450;Laerm;56829;52.274;4.770;2023-07-24T00:23:49;33.18;31.46;35.64;;
66450;Laerm;56829;52.274;4.770;2023-07-24T00:23:59;32.92;31.48;35.54;;
66450;Laerm;56829;52.274;4.770;2023-07-24T00:24:09;33.15;30.71;36.12;;
66450;Laerm;56829;52.274;4.770;2023-07-24T00:24:20;33.65;31.71;36.58;;
66450;Laerm;56829;52.274;4.770;2023-07-24T00:24:31;33.92;31.86;41.39;;
66450;Laerm;56829;52.274;4.770;2023-07-24T00:24:41;34.25;32.18;36.32;;
66450;Laerm;56829;52.274;4.770;2023-07-24T00:24:51;32.83;31.35;35.16;;
66450;Laerm;56829;52.274;4.770;2023-07-24T00:25:02;33.43;31.56;35.21;;
66450;Laerm;56829;52.274;4.770;2023-07-24T00:25:12;33.71;31.39;45.41;;
66450;Laerm;56829;52.274;4.770;2023-07-24T00:25:22;35.12;33.28;38.49;;
66450;Laerm;56829;52.274;4.770;2023-07-24T00:25:32;34.16;32.15;36.57;;
66450;Laerm;56829;52.274;4.770;2023-07-24T00:25:43;37.56;33.61;46.17;;
66450;Laerm;56829;52.274;4.770;2023-07-24T00:25:53;35.11;32.55;42.85;;
66450;Laerm;56829;52.274;4.770;2023-07-24T00:26:03;34.54;31.67;37.58;;
66450;Laerm;56829;52.274;4.770;2023-07-24T00:26:14;34.25;31.93;37.27;;
66450;Laerm;56829;52.274;4.770;2023-07-24T00:26:24;33.38;31.63;36.00;;
66450;Laerm;56829;52.274;4.770;2023-07-24T00:26:34;34.02;32.44;36.86;;
66450;Laerm;56829;52.274;4.770;2023-07-24T00:26:44;33.59;31.73;36.12;;
66450;Laerm;56829;52.274;4.770;2023-07-24T00:26:54;33.38;31.93;35.49;;
66450;Laerm;56829;52.274;4.770;2023-07-24T00:27:05;33.83;31.37;37.93;;
66450;Laerm;56829;52.274;4.770;2023-07-24T00:27:15;33.51;31.65;39.90;;
66450;Laerm;56829;52.274;4.770;2023-07-24T00:27:25;32.86;31.36;34.61;;
66450;Laerm;56829;52.274;4.770;2023-07-24T00:27:35;32.61;30.80;34.44;;
66450;Laerm;56829;52.274;4.770;2023-07-24T00:27:45;32.49;30.56;37.09;;
66450;Laerm;56829;52.274;4.770;2023-07-24T00:27:56;32.34;30.71;38.27;;
66450;Laerm;56829;52.274;4.770;2023-07-24T00:28:06;32.74;30.81;35.21;;
66450;Laerm;56829;52.274;4.770;2023-07-24T00:28:16;32.22;30.78;35.35;;
66450;Laerm;56829;52.274;4.770;2023-07-24T00:28:26;32.60;30.16;39.12;;
66450;Laerm;56829;52.274;4.770;2023-07-24T00:28:36;33.06;30.95;35.49;;
66450;Laerm;56829;52.274;4.770;2023-07-24T00:28:46;32.36;30.80;34.41;;
66450;Laerm;56829;52.274;4.770;2023-07-24T00:28:57;32.74;31.21;34.63;;
66450;Laerm;56829;52.274;4.770;2023-07-24T00:29:07;32.34;30.84;34.00;;
66450;Laerm;56829;52.274;4.770;2023-07-24T00:29:17;32.23;30.01;34.43;;
66450;Laerm;56829;52.274;4.770;2023-07-24T00:29:27;32.28;30.53;35.26;;
66450;Laerm;56829;52.274;4.770;2023-07-24T00:29:37;32.73;30.67;36.13;;
66450;Laerm;56829;52.274;4.770;2023-07-24T00:29:48;31.92;30.60;33.54;;
66450;Laerm;56829;52.274;4.770;2023-07-24T00:29:58;32.24;30.74;34.87;;
66450;Laerm;56829;52.274;4.770;2023-07-24T00:30:08;32.09;30.38;34.33;;
66450;Laerm;56829;52.274;4.770;2023-07-24T00:30:18;32.60;30.85;34.04;;
66450;Laerm;56829;52.274;4.770;2023-07-24T00:30:29;32.71;31.13;34.56;;
66450;Laerm;56829;52.274;4.770;2023-07-24T00:30:39;32.08;30.33;33.80;;
66450;Laerm;56829;52.274;4.770;2023-07-24T00:30:49;32.66;30.80;34.61;;
66450;Laerm;56829;52.274;4.770;2023-07-24T00:30:59;32.05;30.19;33.88;;
66450;Laerm;56829;52.274;4.770;2023-07-24T00:31:09;32.14;30.56;33.76;;
66450;Laerm;56829;52.274;4.770;2023-07-24T00:31:20;32.92;30.77;35.20;;
66450;Laerm;56829;52.274;4.770;2023-07-24T00:31:30;32.62;30.80;34.78;;
66450;Laerm;56829;52.274;4.770;2023-07-24T00:31:40;32.66;30.69;35.52;;
66450;Laerm;56829;52.274;4.770;2023-07-24T00:31:50;32.60;30.41;35.51;;
66450;Laerm;56829;52.274;4.770;2023-07-24T00:32:00;32.52;30.06;36.97;;
66450;Laerm;56829;52.274;4.770;2023-07-24T00:32:11;33.12;30.97;39.33;;
66450;Laerm;56829;52.274;4.770;2023-07-24T00:32:21;33.55;31.06;37.12;;
66450;Laerm;56829;52.274;4.770;2023-07-24T00:32:31;44.42;34.33;52.18;;
66450;Laerm;56829;52.274;4.770;2023-07-24T00:32:41;51.80;39.41;60.28;;
66450;Laerm;56829;52.274;4.770;2023-07-24T00:32:52;37.97;35.52;41.96;;
66450;Laerm;56829;52.274;4.770;2023-07-24T00:33:02;36.51;33.48;42.47;;
66450;Laerm;56829;52.274;4.770;2023-07-24T00:33:12;35.45;33.01;39.49;;
66450;Laerm;56829;52.274;4.770;2023-07-24T00:33:22;34.60;31.84;37.32;;
66450;Laerm;56829;52.274;4.770;2023-07-24T00:33:32;32.93;31.15;39.78;;
66450;Laerm;56829;52.274;4.770;2023-07-24T00:33:43;33.16;31.38;34.89;;
66450;Laerm;56829;52.274;4.770;2023-07-24T00:33:53;34.04;31.80;36.97;;
66450;Laerm;56829;52.274;4.770;2023-07-24T00:34:03;34.22;32.22;36.02;;
66450;Laerm;56829;52.274;4.770;2023-07-24T00:34:13;35.43;31.87;39.42;;
66450;Laerm;56829;52.274;4.770;2023-07-24T00:34:24;33.98;31.86;35.91;;
66450;Laerm;56829;52.274;4.770;2023-07-24T00:34:34;34.62;32.07;38.07;;
66450;Laerm;56829;52.274;4.770;2023-07-24T00:34:44;34.47;32.63;36.91;;
66450;Laerm;56829;52.274;4.770;2023-07-24T00:34:54;40.46;33.53;48.62;;
66450;Laerm;56829;52.274;4.770;2023-07-24T00:35:04;49.66;37.25;57.87;;
66450;Laerm;56829;52.274;4.770;2023-07-24T00:35:15;35.86;32.76;39.81;;
66450;Laerm;56829;52.274;4.770;2023-07-24T00:35:25;32.98;30.56;34.74;;
66450;Laerm;56829;52.274;4.770;2023-07-24T00:35:36;33.27;31.50;35.34;;
66450;Laerm;56829;52.274;4.770;2023-07-24T00:35:46;33.36;31.50;35.89;;
66450;Laerm;56829;52.274;4.770;2023-07-24T00:35:57;33.80;31.65;39.29;;
66450;Laerm;56829;52.274;4.770;2023-07-24T00:36:07;34.17;31.42;37.45;;
66450;Laerm;56829;52.274;4.770;2023-07-24T00:36:17;32.59;30.10;36.22;;
66450;Laerm;56829;52.274;4.770;2023-07-24T00:36:28;32.63;30.79;36.25;;
66450;Laerm;56829;52.274;4.770;2023-07-24T00:36:38;32.12;30.21;34.81;;
66450;Laerm;56829;52.274;4.770;2023-07-24T00:36:48;32.42;30.71;34.21;;
66450;Laerm;56829;52.274;4.770;2023-07-24T00:36:58;32.43;30.94;35.52;;
66450;Laerm;56829;52.274;4.770;2023-07-24T00:37:09;33.50;31.93;36.79;;
66450;Laerm;56829;52.274;4.770;2023-07-24T00:37:19;34.21;32.28;38.13;;
66450;Laerm;56829;52.274;4.770;2023-07-24T00:37:29;34.59;31.88;42.57;;
66450;Laerm;56829;52.274;4.770;2023-07-24T00:37:39;34.17;31.86;37.06;;
66450;Laerm;56829;52.274;4.770;2023-07-24T00:37:49;33.78;31.90;35.78;;
66450;Laerm;56829;52.274;4.770;2023-07-24T00:38:00;33.62;31.53;35.48;;
66450;Laerm;56829;52.274;4.770;2023-07-24T00:38:10;41.69;33.75;49.16;;
66450;Laerm;56829;52.274;4.770;2023-07-24T00:38:20;39.89;31.83;49.34;;
66450;Laerm;56829;52.274;4.770;2023-07-24T00:38:30;32.88;31.04;35.01;;
66450;Laerm;56829;52.274;4.770;2023-07-24T00:38:41;32.96;30.59;36.56;;
66450;Laerm;56829;52.274;4.770;2023-07-24T00:38:51;32.85;30.69;35.58;;
66450;Laerm;56829;52.274;4.770;2023-07-24T00:39:01;34.16;31.33;38.07;;
66450;Laerm;56829;52.274;4.770;2023-07-24T00:39:13;33.81;31.61;35.60;;
66450;Laerm;56829;52.274;4.770;2023-07-24T00:39:24;33.41;31.35;35.41;;
66450;Laerm;56829;52.274;4.770;2023-07-24T00:39:34;32.82;30.46;35.90;;
66450;Laerm;56829;52.274;4.770;2023-07-24T00:39:44;32.78;30.46;34.45;;
66450;Laerm;56829;52.274;4.770;2023-07-24T00:39:54;32.93;31.39;34.60;;
66450;Laerm;56829;52.274;4.770;2023-07-24T00:40:04;32.86;31.24;34.40;;
66450;Laerm;56829;52.274;4.770;2023-07-24T00:40:15;32.89;30.90;35.20;;
66450;Laerm;56829;52.274;4.770;2023-07-24T00:40:25;33.08;31.06;35.33;;
66450;Laerm;56829;52.274;4.770;2023-07-24T00:40:35;32.87;31.05;34.72;;
66450;Laerm;56829;52.274;4.770;2023-07-24T00:40:45;32.51;30.89;33.75;;
66450;Laerm;56829;52.274;4.770;2023-07-24T00:40:56;32.57;31.03;34.40;;
66450;Laerm;56829;52.274;4.770;2023-07-24T00:41:06;32.71;31.04;34.64;;
66450;Laerm;56829;52.274;4.770;2023-07-24T00:41:16;32.85;30.94;35.09;;
66450;Laerm;56829;52.274;4.770;2023-07-24T00:41:26;32.85;30.58;35.52;;
66450;Laerm;56829;52.274;4.770;2023-07-24T00:41:37;32.57;30.98;36.35;;
66450;Laerm;56829;52.274;4.770;2023-07-24T00:41:47;32.57;30.93;34.68;;
66450;Laerm;56829;52.274;4.770;2023-07-24T00:41:57;33.22;31.10;36.78;;
66450;Laerm;56829;52.274;4.770;2023-07-24T00:42:07;35.19;31.56;41.24;;
66450;Laerm;56829;52.274;4.770;2023-07-24T00:42:18;45.81;35.77;53.62;;
66450;Laerm;56829;52.274;4.770;2023-07-24T00:42:28;34.44;31.27;37.87;;
66450;Laerm;56829;52.274;4.770;2023-07-24T00:42:38;32.66;30.41;34.21;;
66450;Laerm;56829;52.274;4.770;2023-07-24T00:42:48;33.18;31.33;34.93;;
66450;Laerm;56829;52.274;4.770;2023-07-24T00:42:58;34.08;31.99;37.25;;
66450;Laerm;56829;52.274;4.770;2023-07-24T00:43:09;32.84;30.89;34.75;;
66450;Laerm;56829;52.274;4.770;2023-07-24T00:43:19;33.02;31.47;34.95;;
66450;Laerm;56829;52.274;4.770;2023-07-24T00:43:29;33.16;31.26;37.10;;
66450;Laerm;56829;52.274;4.770;2023-07-24T00:43:39;33.06;31.43;36.41;;
66450;Laerm;56829;52.274;4.770;2023-07-24T00:43:51;32.85;31.22;37.01;;
66450;Laerm;56829;52.274;4.770;2023-07-24T00:44:01;32.89;31.35;35.05;;
66450;Laerm;56829;52.274;4.770;2023-07-24T00:44:11;32.62;30.98;34.50;;
66450;Laerm;56829;52.274;4.770;2023-07-24T00:44:21;32.38;30.42;34.53;;
66450;Laerm;56829;52.274;4.770;2023-07-24T00:44:31;32.37;29.86;34.16;;
66450;Laerm;56829;52.274;4.770;2023-07-24T00:44:42;33.45;30.59;38.35;;
66450;Laerm;56829;52.274;4.770;2023-07-24T00:44:52;34.10;30.81;36.89;;
66450;Laerm;56829;52.274;4.770;2023-07-24T00:45:02;35.90;31.39;42.90;;
66450;Laerm;56829;52.274;4.770;2023-07-24T00:45:13;33.41;31.10;38.64;;
66450;Laerm;56829;52.274;4.770;2023-07-24T00:45:23;33.55;31.08;37.47;;
66450;Laerm;56829;52.274;4.770;2023-07-24T00:45:34;35.55;32.00;44.22;;
66450;Laerm;56829;52.274;4.770;2023-07-24T00:45:44;44.43;34.22;52.18;;
66450;Laerm;56829;52.274;4.770;2023-07-24T00:45:55;34.34;31.91;37.75;;
66450;Laerm;56829;52.274;4.770;2023-07-24T00:46:05;33.20;31.61;36.76;;
66450;Laerm;56829;52.274;4.770;2023-07-24T00:46:16;32.84;30.64;35.06;;
66450;Laerm;56829;52.274;4.770;2023-07-24T00:46:26;32.96;31.38;36.27;;
66450;Laerm;56829;52.274;4.770;2023-07-24T00:46:36;32.67;31.16;34.75;;
66450;Laerm;56829;52.274;4.770;2023-07-24T00:46:47;32.93;31.25;35.56;;
66450;Laerm;56829;52.274;4.770;2023-07-24T00:46:57;33.13;30.50;37.48;;
66450;Laerm;56829;52.274;4.770;2023-07-24T00:47:07;32.91;30.68;35.45;;
66450;Laerm;56829;52.274;4.770;2023-07-24T00:47:18;32.47;30.81;35.17;;
66450;Laerm;56829;52.274;4.770;2023-07-24T00:47:28;32.32;30.53;35.09;;
66450;Laerm;56829;52.274;4.770;2023-07-24T00:47:39;31.86;30.09;35.49;;
66450;Laerm;56829;52.274;4.770;2023-07-24T00:47:49;32.40;30.35;35.03;;
66450;Laerm;56829;52.274;4.770;2023-07-24T00:48:00;33.30;30.89;44.81;;
66450;Laerm;56829;52.274;4.770;2023-07-24T00:48:10;32.91;31.08;38.62;;
66450;Laerm;56829;52.274;4.770;2023-07-24T00:48:20;32.70;31.06;35.28;;
66450;Laerm;56829;52.274;4.770;2023-07-24T00:48:31;32.25;30.18;33.95;;
66450;Laerm;56829;52.274;4.770;2023-07-24T00:48:41;32.06;30.11;33.62;;
66450;Laerm;56829;52.274;4.770;2023-07-24T00:48:51;32.01;30.53;34.63;;
66450;Laerm;56829;52.274;4.770;2023-07-24T00:49:02;39.82;30.93;51.90;;
66450;Laerm;56829;52.274;4.770;2023-07-24T00:49:14;34.46;31.43;41.55;;
66450;Laerm;56829;52.274;4.770;2023-07-24T00:49:24;33.49;30.94;40.59;;
66450;Laerm;56829;52.274;4.770;2023-07-24T00:49:37;32.58;30.74;34.62;;
66450;Laerm;56829;52.274;4.770;2023-07-24T00:49:47;33.05;31.15;35.49;;
66450;Laerm;56829;52.274;4.770;2023-07-24T00:49:58;32.31;30.50;34.16;;
66450;Laerm;56829;52.274;4.770;2023-07-24T00:50:08;32.43;30.51;34.70;;
66450;Laerm;56829;52.274;4.770;2023-07-24T00:50:19;32.66;30.75;34.21;;
66450;Laerm;56829;52.274;4.770;2023-07-24T00:50:29;32.66;30.96;34.25;;
66450;Laerm;56829;52.274;4.770;2023-07-24T00:50:39;32.26;30.32;34.75;;
66450;Laerm;56829;52.274;4.770;2023-07-24T00:50:51;32.36;30.47;36.85;;
66450;Laerm;56829;52.274;4.770;2023-07-24T00:51:01;32.51;30.82;36.06;;
66450;Laerm;56829;52.274;4.770;2023-07-24T00:51:11;32.00;30.21;33.45;;
66450;Laerm;56829;52.274;4.770;2023-07-24T00:51:22;31.85;30.12;33.94;;
66450;Laerm;56829;52.274;4.770;2023-07-24T00:51:32;31.92;30.33;33.76;;
66450;Laerm;56829;52.274;4.770;2023-07-24T00:51:42;31.77;29.71;33.99;;
66450;Laerm;56829;52.274;4.770;2023-07-24T00:51:54;31.69;30.09;34.03;;
66450;Laerm;56829;52.274;4.770;2023-07-24T00:52:05;31.98;30.27;35.38;;
66450;Laerm;56829;52.274;4.770;2023-07-24T00:52:15;33.06;30.99;36.07;;
66450;Laerm;56829;52.274;4.770;2023-07-24T00:52:25;45.51;32.84;54.66;;
66450;Laerm;56829;52.274;4.770;2023-07-24T00:52:36;39.31;33.29;45.56;;
66450;Laerm;56829;52.274;4.770;2023-07-24T00:52:46;33.14;31.30;35.71;;
66450;Laerm;56829;52.274;4.770;2023-07-24T00:52:57;32.90;31.67;34.52;;
66450;Laerm;56829;52.274;4.770;2023-07-24T00:53:07;33.27;31.16;35.97;;
66450;Laerm;56829;52.274;4.770;2023-07-24T00:53:18;33.54;31.66;35.63;;
66450;Laerm;56829;52.274;4.770;2023-07-24T00:53:29;33.11;31.06;36.08;;
66450;Laerm;56829;52.274;4.770;2023-07-24T00:53:39;33.13;30.79;35.23;;
66450;Laerm;56829;52.274;4.770;2023-07-24T00:53:49;35.59;32.07;38.98;;
66450;Laerm;56829;52.274;4.770;2023-07-24T00:54:00;33.91;31.87;37.17;;
66450;Laerm;56829;52.274;4.770;2023-07-24T00:54:11;35.43;32.35;39.71;;
66450;Laerm;56829;52.274;4.770;2023-07-24T00:54:21;36.91;32.89;42.13;;
66450;Laerm;56829;52.274;4.770;2023-07-24T00:54:32;50.90;39.91;59.11;;
66450;Laerm;56829;52.274;4.770;2023-07-24T00:54:42;38.14;32.27;48.18;;
66450;Laerm;56829;52.274;4.770;2023-07-24T00:54:53;33.44;31.30;36.15;;
66450;Laerm;56829;52.274;4.770;2023-07-24T00:55:03;33.25;30.56;37.94;;
66450;Laerm;56829;52.274;4.770;2023-07-24T00:55:15;34.25;30.93;39.62;;
66450;Laerm;56829;52.274;4.770;2023-07-24T00:55:26;32.99;30.50;40.11;;
66450;Laerm;56829;52.274;4.770;2023-07-24T00:55:36;32.19;30.72;38.66;;
66450;Laerm;56829;52.274;4.770;2023-07-24T00:55:47;32.64;30.66;35.03;;
66450;Laerm;56829;52.274;4.770;2023-07-24T00:55:57;32.71;30.96;37.17;;
66450;Laerm;56829;52.274;4.770;2023-07-24T00:56:07;32.27;30.78;35.96;;
66450;Laerm;56829;52.274;4.770;2023-07-24T00:56:18;32.37;30.42;40.00;;
66450;Laerm;56829;52.274;4.770;2023-07-24T00:56:28;32.58;30.50;36.14;;
66450;Laerm;56829;52.274;4.770;2023-07-24T00:56:39;33.45;30.53;41.19;;
66450;Laerm;56829;52.274;4.770;2023-07-24T00:56:49;32.61;30.74;36.14;;
66450;Laerm;56829;52.274;4.770;2023-07-24T00:56:59;32.51;30.21;38.82;;
66450;Laerm;56829;52.274;4.770;2023-07-24T00:57:10;33.31;31.08;40.79;;
66450;Laerm;56829;52.274;4.770;2023-07-24T00:57:20;33.29;30.90;38.98;;
66450;Laerm;56829;52.274;4.770;2023-07-24T00:57:31;32.86;30.84;43.53;;
66450;Laerm;56829;52.274;4.770;2023-07-24T00:57:42;33.19;30.80;36.03;;
66450;Laerm;56829;52.274;4.770;2023-07-24T00:57:53;33.63;30.99;36.63;;